Time;durP1;ratioP1;P1;durP2;ratioP2;P2;SDS_P1;SDS_P2;PMS_P1;PMS_P2;Temp;Humidity;BMP_temperature;BMP_pressure;BME280_temperature;BME280_humidity;BME280_pressure;Samples;Min_cycle;Max_cycle;Signal;HPM_P1;HPM_P2
2022/07/14 00:00:14;;;;;;;3.50;2.60;;;22.50;99.90;;;;;;5040829;28;20444;-56
2022/07/14 00:02:42;;;;;;;3.43;3.00;;;22.40;99.90;;;;;;5052491;28;20507;-49
2022/07/14 00:05:09;;;;;;;4.00;2.70;;;22.40;99.90;;;;;;5054419;28;20428;-48
2022/07/14 00:07:36;;;;;;;5.33;3.50;;;22.30;99.90;;;;;;5054278;28;20455;-42
2022/07/14 00:10:03;;;;;;;4.60;3.43;;;22.30;99.90;;;;;;5054385;28;20456;-48
2022/07/14 00:12:30;;;;;;;11.30;3.40;;;22.30;99.90;;;;;;5053892;28;20718;-47
2022/07/14 00:14:57;;;;;;;3.93;3.53;;;22.30;99.90;;;;;;5054419;28;20520;-47
2022/07/14 00:17:25;;;;;;;3.37;3.07;;;22.20;99.90;;;;;;5053557;28;20429;-45
2022/07/14 00:19:53;;;;;;;3.53;3.23;;;22.20;99.90;;;;;;5056901;28;20447;-42
2022/07/14 00:22:20;;;;;;;3.33;2.80;;;22.10;99.90;;;;;;5058456;28;20492;-48
2022/07/14 00:24:48;;;;;;;5.40;2.93;;;22.00;99.90;;;;;;5058482;28;20492;-43
2022/07/14 00:27:15;;;;;;;3.03;2.47;;;22.00;99.90;;;;;;5057802;28;20812;-52
2022/07/14 00:29:42;;;;;;;3.97;3.57;;;21.90;99.90;;;;;;5057391;28;20500;-49
2022/07/14 00:32:11;;;;;;;2.80;2.50;;;21.90;99.90;;;;;;5057864;28;20455;-55
2022/07/14 00:34:38;;;;;;;3.40;2.40;;;21.90;99.90;;;;;;5058553;28;20452;-48
2022/07/14 00:37:06;;;;;;;3.60;3.00;;;21.80;99.90;;;;;;5058523;28;20416;-46
2022/07/14 00:42:13;;;;;;;2.50;2.00;;;21.70;99.90;;;;;;5057608;28;20495;-46
2022/07/14 00:44:40;;;;;;;7.30;3.73;;;21.70;99.90;;;;;;5058491;28;20480;-43
2022/07/14 00:47:07;;;;;;;2.80;2.40;;;21.60;99.90;;;;;;5057728;28;20480;-41
2022/07/14 00:49:39;;;;;;;2.90;2.47;;;21.50;99.90;;;;;;5057964;28;20515;-41
2022/07/14 00:52:08;;;;;;;4.03;2.77;;;21.60;99.90;;;;;;5058092;28;20421;-47
2022/07/14 00:54:35;;;;;;;3.90;3.10;;;21.50;99.90;;;;;;5058023;28;20428;-50
2022/07/14 00:57:02;;;;;;;5.43;2.30;;;21.50;99.90;;;;;;5057673;28;20460;-54
2022/07/14 00:59:32;;;;;;;5.83;2.43;;;21.40;99.90;;;;;;5057648;28;20424;-44
2022/07/14 01:01:59;;;;;;;3.53;1.93;;;21.30;99.90;;;;;;5056862;28;20547;-41
2022/07/14 01:04:26;;;;;;;2.50;2.23;;;21.30;99.90;;;;;;5057395;28;20496;-51
2022/07/14 01:06:52;;;;;;;5.27;2.40;;;21.20;99.90;;;;;;5057587;28;20481;-47
2022/07/14 01:09:21;;;;;;;4.40;4.07;;;21.20;99.90;;;;;;5057001;28;20515;-47
2022/07/14 01:11:52;;;;;;;2.33;2.13;;;21.20;99.90;;;;;;5056732;28;20450;-46
2022/07/14 01:14:20;;;;;;;3.50;3.00;;;21.20;99.90;;;;;;5056968;28;20428;-44
2022/07/14 01:16:55;;;;;;;4.93;2.63;;;21.10;99.90;;;;;;5057497;28;20464;-50
2022/07/14 01:19:22;;;;;;;5.83;2.47;;;21.10;99.90;;;;;;5057308;28;20515;-53
2022/07/14 01:21:51;;;;;;;4.57;2.83;;;21.10;99.90;;;;;;5057309;28;20508;-50
2022/07/14 01:24:18;;;;;;;2.77;2.53;;;21.00;99.90;;;;;;5057938;28;20460;-52
2022/07/14 01:26:45;;;;;;;2.97;2.40;;;21.00;99.90;;;;;;5058154;28;20548;-49
2022/07/14 01:29:12;;;;;;;3.80;2.90;;;20.90;99.90;;;;;;5048336;28;20523;-50
2022/07/14 01:31:40;;;;;;;6.53;3.10;;;20.80;99.90;;;;;;5057187;28;20523;-48
2022/07/14 01:34:07;;;;;;;3.07;2.77;;;20.80;99.90;;;;;;5057079;28;20847;-46
2022/07/14 01:36:36;;;;;;;5.50;2.40;;;20.80;99.90;;;;;;5057201;28;20487;-43
2022/07/14 01:39:11;;;;;;;2.60;2.10;;;20.70;99.90;;;;;;5056894;28;20631;-43
2022/07/14 01:41:40;;;;;;;3.10;2.80;;;20.70;99.90;;;;;;5056984;28;20495;-40
2022/07/14 01:44:07;;;;;;;2.80;2.30;;;20.60;99.90;;;;;;5057131;28;20424;-47
2022/07/14 01:46:34;;;;;;;6.23;2.37;;;20.60;99.90;;;;;;5056601;28;20460;-46
2022/07/14 01:49:01;;;;;;;3.20;2.70;;;20.50;99.90;;;;;;5056349;28;20500;-53
2022/07/14 01:51:28;;;;;;;2.43;2.23;;;20.40;99.90;;;;;;5056619;28;20424;-50
2022/07/14 01:53:58;;;;;;;3.00;2.43;;;20.30;99.90;;;;;;5056294;28;20444;-47
2022/07/14 01:56:26;;;;;;;3.43;2.20;;;20.30;99.90;;;;;;5056359;28;20488;-49
2022/07/14 01:58:56;;;;;;;3.43;2.07;;;20.20;99.90;;;;;;5056583;28;20492;-50
2022/07/14 02:01:41;;;;;;;4.80;2.37;;;20.20;99.90;;;;;;5056968;28;20440;-40
2022/07/14 02:04:12;;;;;;;4.93;2.20;;;20.20;99.90;;;;;;5057521;28;20441;-46
2022/07/14 02:06:42;;;;;;;4.70;2.67;;;20.10;99.90;;;;;;5056664;28;20412;-47
2022/07/14 02:09:09;;;;;;;4.57;2.10;;;20.00;99.90;;;;;;5055787;28;20468;-44
2022/07/14 02:14:22;;;;;;;4.27;2.03;;;20.00;99.90;;;;;;5055290;28;20449;-47
2022/07/14 02:16:49;;;;;;;1.97;1.50;;;19.90;99.90;;;;;;5054948;28;20490;-48
2022/07/14 02:19:16;;;;;;;3.40;1.60;;;19.90;99.90;;;;;;5055218;28;20436;-52
2022/07/14 02:21:44;;;;;;;2.53;1.60;;;19.80;99.90;;;;;;5054886;28;20462;-51
2022/07/14 02:24:11;;;;;;;4.33;2.07;;;19.80;99.90;;;;;;5048281;28;20471;-48
2022/07/14 02:26:40;;;;;;;4.07;2.00;;;19.80;99.90;;;;;;5056016;28;20451;-49
2022/07/14 02:29:07;;;;;;;5.30;2.60;;;19.70;99.90;;;;;;5056163;28;20832;-43
2022/07/14 02:31:35;;;;;;;3.90;2.13;;;19.70;99.90;;;;;;5056015;28;20517;-47
2022/07/14 02:34:02;;;;;;;4.47;2.10;;;19.60;99.90;;;;;;5052250;28;20527;-52
2022/07/14 02:36:29;;;;;;;3.93;2.40;;;19.60;99.90;;;;;;5050855;28;20519;-47
2022/07/14 02:38:56;;;;;;;3.67;2.07;;;19.50;99.90;;;;;;5056011;28;20485;-49
2022/07/14 02:41:23;;;;;;;4.90;3.00;;;19.50;99.90;;;;;;5054816;28;20431;-51
2022/07/14 02:43:51;;;;;;;3.97;1.80;;;19.40;99.90;;;;;;5055545;28;20454;-44
2022/07/14 02:46:18;;;;;;;4.70;1.80;;;19.40;99.90;;;;;;5055597;28;20939;-46
2022/07/14 02:48:49;;;;;;;7.83;2.07;;;19.30;99.90;;;;;;5055242;28;20498;-53
2022/07/14 02:51:19;;;;;;;6.07;1.90;;;19.30;99.90;;;;;;5055760;28;20476;-49
2022/07/14 02:53:49;;;;;;;2.43;1.63;;;19.30;99.90;;;;;;5055898;28;20509;-47
2022/07/14 02:56:16;;;;;;;7.07;1.60;;;19.20;99.90;;;;;;5055673;28;20460;-44
2022/07/14 02:58:45;;;;;;;9.63;2.37;;;19.20;99.90;;;;;;5056000;28;20463;-52
2022/07/14 03:01:13;;;;;;;2.20;1.37;;;19.10;99.90;;;;;;5055770;28;20439;-47
2022/07/14 03:03:40;;;;;;;10.57;2.07;;;19.10;99.90;;;;;;5056066;28;20484;-52
2022/07/14 03:06:11;;;;;;;2.47;1.73;;;19.00;99.90;;;;;;5055993;28;20519;-44
2022/07/14 03:08:38;;;;;;;4.33;1.90;;;18.90;99.90;;;;;;5056229;28;20475;-55
2022/07/14 03:11:07;;;;;;;3.43;1.70;;;18.90;99.90;;;;;;5056499;28;20467;-46
2022/07/14 03:13:35;;;;;;;6.60;2.40;;;18.90;99.90;;;;;;5055912;28;20467;-47
2022/07/14 03:16:02;;;;;;;7.57;2.20;;;18.80;99.90;;;;;;5055347;28;20468;-52
2022/07/14 03:18:33;;;;;;;11.63;2.00;;;18.70;99.90;;;;;;5055300;28;20451;-54
2022/07/14 03:21:00;;;;;;;6.50;2.60;;;18.60;99.90;;;;;;5055063;28;20444;-41
2022/07/14 03:23:27;;;;;;;4.47;1.80;;;18.60;99.90;;;;;;5054602;28;20475;-46
2022/07/14 03:25:54;;;;;;;7.17;3.10;;;18.50;99.90;;;;;;5055033;28;20453;-46
2022/07/14 03:28:20;;;;;;;3.40;2.10;;;18.50;99.90;;;;;;5054503;28;20521;-47
2022/07/14 03:30:48;;;;;;;5.03;1.87;;;18.40;99.90;;;;;;5055189;28;20519;-43
2022/07/14 03:33:15;;;;;;;2.93;1.83;;;18.40;99.90;;;;;;5054960;28;20439;-45
2022/07/14 03:35:43;;;;;;;4.50;2.00;;;18.40;99.90;;;;;;5054778;28;20474;-45
2022/07/14 03:38:12;;;;;;;3.40;1.63;;;18.30;99.90;;;;;;5054683;28;20456;-47
2022/07/14 03:40:39;;;;;;;12.77;2.03;;;18.30;99.90;;;;;;5055152;28;20444;-50
2022/07/14 03:43:08;;;;;;;3.20;1.97;;;18.30;99.90;;;;;;5055176;28;20472;-47
2022/07/14 03:45:35;;;;;;;3.70;2.00;;;18.40;99.90;;;;;;5055205;28;20460;-42
2022/07/14 03:48:02;;;;;;;11.07;2.43;;;18.40;99.90;;;;;;5055363;28;20440;-45
2022/07/14 03:50:29;;;;;;;5.00;2.27;;;18.40;99.90;;;;;;5054784;28;20484;-40
2022/07/14 03:52:57;;;;;;;8.23;2.10;;;18.40;99.90;;;;;;5055285;28;20456;-40
2022/07/14 03:55:24;;;;;;;7.67;2.10;;;18.30;99.90;;;;;;5041659;28;20482;-43
2022/07/14 03:57:51;;;;;;;7.13;1.90;;;18.20;99.90;;;;;;5059098;28;20468;-52
2022/07/14 04:00:18;;;;;;;5.50;1.63;;;18.20;99.90;;;;;;5059104;28;20896;-56
2022/07/14 04:02:47;;;;;;;9.43;3.00;;;18.20;99.90;;;;;;5058375;28;20495;-48
2022/07/14 04:05:13;;;;;;;6.57;1.93;;;18.10;99.90;;;;;;5058128;28;20504;-52
2022/07/14 04:07:40;;;;;;;5.90;1.70;;;18.10;99.90;;;;;;5058619;28;20451;-49
2022/07/14 04:10:09;;;;;;;4.53;2.47;;;18.00;99.90;;;;;;5058375;28;20482;-47
2022/07/14 04:12:35;;;;;;;6.27;2.50;;;18.00;99.90;;;;;;5058359;28;20475;-52
2022/07/14 04:15:02;;;;;;;2.63;1.87;;;17.90;99.90;;;;;;5058440;28;20448;-53
2022/07/14 04:17:29;;;;;;;8.20;2.30;;;17.90;99.90;;;;;;5058062;28;20456;-49
2022/07/14 04:19:56;;;;;;;4.23;1.70;;;17.90;99.90;;;;;;5058229;28;20503;-47
2022/07/14 04:22:23;;;;;;;4.47;1.97;;;17.80;99.90;;;;;;5058475;28;20439;-50
2022/07/14 04:24:49;;;;;;;4.17;2.43;;;17.80;99.90;;;;;;5057828;28;20916;-51
2022/07/14 04:27:18;;;;;;;6.90;2.17;;;17.80;99.90;;;;;;5058185;28;20447;-47
2022/07/14 04:29:44;;;;;;;4.67;1.93;;;17.80;99.90;;;;;;5057959;28;20431;-46
2022/07/14 04:32:12;;;;;;;3.23;1.90;;;17.70;99.90;;;;;;5058095;28;20448;-47
2022/07/14 04:34:41;;;;;;;9.10;4.37;;;17.70;99.90;;;;;;5058156;28;20448;-43
2022/07/14 04:37:08;;;;;;;5.40;1.67;;;17.60;99.90;;;;;;5058543;28;20434;-53
2022/07/14 04:39:35;;;;;;;4.30;2.43;;;17.60;99.90;;;;;;5058044;28;20474;-52
2022/07/14 04:42:02;;;;;;;8.50;2.03;;;17.60;99.90;;;;;;5057660;28;20472;-49
2022/07/14 04:44:30;;;;;;;5.10;2.10;;;17.60;99.90;;;;;;5058299;28;20547;-51
2022/07/14 04:46:57;;;;;;;4.33;2.23;;;17.50;99.90;;;;;;5058859;28;20436;-49
2022/07/14 04:52:10;;;;;;;5.07;1.90;;;17.50;99.90;;;;;;5077907;28;20438;-44
2022/07/14 04:54:37;;;;;;;3.30;1.67;;;17.60;99.90;;;;;;5077182;28;20490;-46
2022/07/14 04:57:05;;;;;;;11.17;4.43;;;17.60;99.90;;;;;;5075588;28;20522;-47
2022/07/14 04:59:33;;;;;;;3.87;2.23;;;17.60;99.90;;;;;;5077616;28;20477;-50
2022/07/14 05:02:01;;;;;;;5.53;1.90;;;17.60;99.90;;;;;;5077598;28;20459;-36
2022/07/14 05:04:29;;;;;;;6.20;2.53;;;17.60;99.90;;;;;;5077258;28;20479;-40
2022/07/14 05:06:57;;;;;;;6.70;1.90;;;17.60;99.90;;;;;;5075240;28;20439;-40
2022/07/14 05:09:25;;;;;;;3.60;1.60;;;17.60;99.90;;;;;;5077613;28;20481;-47
2022/07/14 05:11:52;;;;;;;9.73;2.20;;;17.50;99.90;;;;;;5071574;28;20452;-48
2022/07/14 05:14:22;;;;;;;6.27;2.50;;;17.60;99.90;;;;;;5077844;28;20439;-46
2022/07/14 05:16:50;;;;;;;5.27;2.20;;;17.60;99.90;;;;;;5077941;28;20482;-47
2022/07/14 05:19:17;;;;;;;7.83;2.63;;;17.70;99.90;;;;;;5077910;28;20447;-47
2022/07/14 05:21:44;;;;;;;4.53;1.97;;;17.70;99.90;;;;;;5078180;28;20526;-53
2022/07/14 05:24:11;;;;;;;8.27;2.33;;;17.70;99.90;;;;;;5078353;28;20479;-54
2022/07/14 05:26:43;;;;;;;4.03;2.40;;;17.70;99.90;;;;;;5077721;28;20431;-49
2022/07/14 05:29:10;;;;;;;8.20;2.37;;;17.80;99.90;;;;;;5078110;28;21142;-44
2022/07/14 05:31:37;;;;;;;4.30;2.37;;;17.70;99.90;;;;;;5077964;28;20454;-47
2022/07/14 05:34:06;;;;;;;4.97;1.73;;;17.70;99.90;;;;;;5078119;28;20431;-49
2022/07/14 05:36:34;;;;;;;7.13;1.83;;;17.70;99.90;;;;;;5077884;28;20534;-35
2022/07/14 05:39:01;;;;;;;5.73;2.10;;;17.70;99.90;;;;;;5077746;28;20461;-42
2022/07/14 05:41:28;;;;;;;5.13;2.30;;;17.80;99.90;;;;;;5072069;28;20487;-39
2022/07/14 05:43:55;;;;;;;11.37;2.10;;;17.90;99.90;;;;;;5075466;28;20520;-46
2022/07/14 05:46:22;;;;;;;3.73;1.90;;;17.90;99.90;;;;;;5072609;28;20467;-42
2022/07/14 05:48:48;;;;;;;6.03;1.80;;;17.90;99.90;;;;;;5076845;28;20473;-46
2022/07/14 05:51:18;;;;;;;6.00;2.53;;;17.90;99.90;;;;;;5069948;28;20447;-54
2022/07/14 05:53:46;;;;;;;3.03;1.80;;;18.00;99.90;;;;;;5074993;28;20915;-40
2022/07/14 05:56:15;;;;;;;5.67;1.33;;;18.00;99.90;;;;;;5076274;28;20507;-50
2022/07/14 05:58:45;;;;;;;5.00;1.60;;;18.10;99.90;;;;;;5076522;28;20450;-54
2022/07/14 06:01:12;;;;;;;7.70;2.63;;;18.10;99.90;;;;;;5076179;28;20467;-44
2022/07/14 06:03:39;;;;;;;7.07;2.50;;;18.20;99.90;;;;;;5075165;28;20467;-38
2022/07/14 06:06:10;;;;;;;9.40;2.17;;;18.30;99.90;;;;;;5076101;28;20462;-52
2022/07/14 06:08:38;;;;;;;3.83;1.90;;;18.40;99.90;;;;;;5073381;28;20525;-49
2022/07/14 06:11:11;;;;;;;6.93;2.10;;;18.40;99.90;;;;;;5071440;28;20569;-39
2022/07/14 06:13:40;;;;;;;12.40;3.90;;;18.50;99.90;;;;;;5051642;28;20472;-53
2022/07/14 06:16:07;;;;;;;5.23;1.53;;;18.60;99.90;;;;;;5063140;28;20468;-43
2022/07/14 06:18:35;;;;;;;4.97;1.70;;;18.60;99.90;;;;;;5075858;28;20450;-49
2022/07/14 06:21:01;;;;;;;4.13;1.40;;;18.70;99.90;;;;;;5076548;28;20648;-37
2022/07/14 06:23:28;;;;;;;5.50;1.93;;;18.70;99.90;;;;;;5076361;28;20474;-51
2022/07/14 06:25:56;;;;;;;5.77;2.10;;;18.60;99.90;;;;;;5076739;28;20503;-54
2022/07/14 06:28:23;;;;;;;9.53;2.03;;;18.60;99.90;;;;;;5075876;28;20459;-51
2022/07/14 06:30:50;;;;;;;3.03;1.70;;;18.60;99.90;;;;;;5076537;28;20466;-49
2022/07/14 06:33:17;;;;;;;4.40;2.27;;;18.60;99.90;;;;;;5063560;28;20439;-41
2022/07/14 06:35:44;;;;;;;7.57;2.00;;;18.70;99.90;;;;;;5056282;28;20464;-48
2022/07/14 06:38:11;;;;;;;4.50;1.97;;;18.80;99.90;;;;;;5056544;28;20456;-37
2022/07/14 06:40:40;;;;;;;8.87;2.53;;;18.80;99.90;;;;;;5056125;28;20492;-45
2022/07/14 06:43:08;;;;;;;5.90;2.10;;;18.90;99.90;;;;;;5056394;28;20487;-42
2022/07/14 06:45:35;;;;;;;6.30;2.07;;;19.00;99.90;;;;;;5077883;28;20443;-37
2022/07/14 06:48:02;;;;;;;5.00;2.30;;;19.20;99.90;;;;;;5051227;28;20506;-55
2022/07/14 06:50:29;;;;;;;6.10;3.80;;;19.40;99.90;;;;;;5069267;28;20450;-48
2022/07/14 06:52:56;;;;;;;9.23;1.83;;;19.50;99.90;;;;;;5058426;28;20523;-50
2022/07/14 06:55:23;;;;;;;8.60;2.50;;;19.50;99.90;;;;;;5065867;28;20616;-49
2022/07/14 06:57:50;;;;;;;9.50;2.10;;;19.60;99.90;;;;;;5068383;28;20448;-49
2022/07/14 07:00:19;;;;;;;5.10;1.73;;;19.60;99.90;;;;;;5071718;28;20507;-46
2022/07/14 07:02:48;;;;;;;3.37;1.50;;;19.50;99.90;;;;;;5060805;28;20442;-53
2022/07/14 07:08:00;;;;;;;4.07;1.97;;;19.30;99.90;;;;;;5065331;28;20462;-49
2022/07/14 07:10:27;;;;;;;3.50;1.80;;;19.20;99.90;;;;;;5073123;28;20473;-50
2022/07/14 07:12:54;;;;;;;6.33;1.90;;;19.10;99.90;;;;;;5068097;28;20443;-46
2022/07/14 07:15:22;;;;;;;7.27;2.10;;;19.10;99.90;;;;;;5070931;28;20447;-49
2022/07/14 07:17:49;;;;;;;6.43;2.77;;;19.20;99.90;;;;;;5073023;28;20445;-52
2022/07/14 07:20:16;;;;;;;4.50;2.47;;;19.40;99.90;;;;;;5069934;28;20466;-53
2022/07/14 07:22:43;;;;;;;3.20;1.60;;;19.70;99.90;;;;;;5071662;28;20451;-51
2022/07/14 07:25:12;;;;;;;9.33;1.87;;;20.00;99.90;;;;;;5053720;28;20480;-40
2022/07/14 07:27:39;;;;;;;6.17;1.90;;;21.00;99.90;;;;;;5060532;28;20455;-46
2022/07/14 07:30:08;;;;;;;2.93;1.40;;;22.50;99.90;;;;;;5070253;28;20558;-56
2022/07/14 07:32:43;;;;;;;3.13;1.53;;;24.50;99.90;;;;;;5069365;28;20435;-51
2022/07/14 07:35:10;;;;;;;4.90;1.93;;;25.50;94.10;;;;;;5068786;28;20510;-49
2022/07/14 07:37:37;;;;;;;4.47;1.43;;;25.90;90.70;;;;;;5067863;28;20443;-50
2022/07/14 07:40:05;;;;;;;4.23;1.70;;;26.30;86.80;;;;;;5067915;28;20466;-39
2022/07/14 07:42:32;;;;;;;3.97;1.80;;;26.90;80.40;;;;;;5069627;28;20538;-47
2022/07/14 07:45:00;;;;;;;2.37;1.50;;;26.70;77.90;;;;;;5063938;28;20506;-53
2022/07/14 07:47:27;;;;;;;5.83;1.77;;;27.50;74.50;;;;;;5070719;28;20473;-53
2022/07/14 07:49:55;;;;;;;8.73;1.87;;;28.60;69.30;;;;;;5074181;28;20427;-39
2022/07/14 07:52:22;;;;;;;3.53;2.10;;;29.60;64.20;;;;;;5073752;28;20459;-54
2022/07/14 07:54:49;;;;;;;5.50;1.93;;;30.10;61.30;;;;;;5073968;28;20447;-47
2022/07/14 07:57:17;;;;;;;5.57;1.90;;;30.80;58.80;;;;;;5073574;28;20455;-53
2022/07/14 07:59:43;;;;;;;4.03;1.80;;;31.20;57.20;;;;;;5074612;28;20479;-49
2022/07/14 08:02:10;;;;;;;2.93;1.93;;;31.50;55.40;;;;;;5074415;28;20415;-57
2022/07/14 08:04:37;;;;;;;3.60;1.70;;;31.50;54.50;;;;;;5074544;28;20510;-50
2022/07/14 08:07:05;;;;;;;5.47;1.70;;;31.70;53.40;;;;;;5068032;28;20453;-46
2022/07/14 08:09:32;;;;;;;2.03;1.40;;;31.80;51.00;;;;;;5064367;28;20459;-51
2022/07/14 08:11:59;;;;;;;3.93;2.30;;;31.80;51.50;;;;;;5065395;28;20956;-55
2022/07/14 08:17:07;;;;;;;2.83;1.60;;;32.20;49.80;;;;;;5061409;28;20805;-56
2022/07/14 08:19:33;;;;;;;2.83;1.40;;;32.20;48.10;;;;;;5060962;28;20523;-51
2022/07/14 08:22:00;;;;;;;2.27;1.30;;;32.10;47.70;;;;;;5072302;28;20469;-56
2022/07/14 08:24:29;;;;;;;3.00;1.63;;;32.20;47.00;;;;;;5062418;28;20531;-48
2022/07/14 08:26:56;;;;;;;2.60;1.33;;;32.20;46.90;;;;;;5073486;28;20476;-50
2022/07/14 08:29:23;;;;;;;3.47;1.40;;;32.20;47.10;;;;;;5074058;28;20482;-56
2022/07/14 08:31:50;;;;;;;2.67;1.40;;;32.20;47.30;;;;;;5069146;28;20499;-51
2022/07/14 08:34:16;;;;;;;1.93;1.10;;;32.40;46.50;;;;;;5069453;28;20443;-47
2022/07/14 08:36:45;;;;;;;4.50;1.80;;;32.60;45.80;;;;;;5070734;28;20439;-34
2022/07/14 08:39:12;;;;;;;3.33;1.60;;;32.80;45.70;;;;;;5072217;28;20453;-41
2022/07/14 08:41:41;;;;;;;2.80;1.80;;;33.00;44.90;;;;;;5076616;28;20474;-36
2022/07/14 08:44:09;;;;;;;1.93;1.57;;;33.40;44.30;;;;;;5065904;28;20536;-48
2022/07/14 08:46:36;;;;;;;3.23;1.60;;;33.50;43.90;;;;;;5074033;28;20524;-43
2022/07/14 08:49:06;;;;;;;4.37;1.60;;;33.80;43.30;;;;;;5075029;28;20459;-39
2022/07/14 08:51:33;;;;;;;2.03;1.27;;;33.50;43.70;;;;;;5066149;28;20485;-41
2022/07/14 08:54:02;;;;;;;7.33;1.80;;;33.60;43.80;;;;;;5076081;28;20492;-42
2022/07/14 08:56:29;;;;;;;3.13;1.50;;;33.70;44.10;;;;;;5075669;28;20447;-46
2022/07/14 08:58:58;;;;;;;2.10;1.50;;;33.80;43.10;;;;;;5076125;28;20451;-41
2022/07/14 09:01:26;;;;;;;2.57;1.30;;;33.90;43.10;;;;;;5076394;28;20439;-42
2022/07/14 09:03:53;;;;;;;2.80;1.47;;;34.10;43.00;;;;;;5076047;28;20435;-35
2022/07/14 09:06:56;;;;;;;2.83;1.30;;;33.80;42.40;;;;;;5075970;28;20467;-35
2022/07/14 09:09:24;;;;;;;3.43;1.90;;;33.70;42.60;;;;;;5069655;28;20510;-41
2022/07/14 09:11:57;;;;;;;4.07;1.63;;;33.70;42.70;;;;;;5066797;28;20871;-49
2022/07/14 09:14:26;;;;;;;2.67;1.27;;;33.90;42.70;;;;;;5074506;28;20447;-45
2022/07/14 09:16:53;;;;;;;2.90;1.90;;;34.00;42.40;;;;;;5076079;28;20424;-47
2022/07/14 09:19:21;;;;;;;4.77;1.23;;;34.00;42.00;;;;;;5065512;28;20512;-41
2022/07/14 09:21:54;;;;;;;2.10;1.13;;;34.10;41.30;;;;;;5073945;28;20941;-42
2022/07/14 09:24:22;;;;;;;3.10;1.50;;;34.30;41.30;;;;;;5073661;28;20490;-47
2022/07/14 09:26:51;;;;;;;2.37;1.30;;;34.50;41.20;;;;;;5074286;28;20451;-41
2022/07/14 09:29:19;;;;;;;5.00;1.40;;;34.50;41.00;;;;;;5073729;28;20495;-47
2022/07/14 09:31:48;;;;;;;6.50;2.20;;;34.40;41.00;;;;;;5073659;28;20584;-48
2022/07/14 09:34:29;;;;;;;1.70;1.10;;;34.30;40.90;;;;;;5073139;28;20444;-49
2022/07/14 09:37:13;;;;;;;5.90;1.90;;;34.00;41.40;;;;;;5073503;28;20478;-40
2022/07/14 09:39:52;;;;;;;4.80;1.50;;;34.00;41.40;;;;;;5066479;28;20447;-51
2022/07/14 09:42:19;;;;;;;4.73;1.73;;;34.00;41.20;;;;;;5072032;28;20431;-44
2022/07/14 09:44:46;;;;;;;3.67;1.70;;;34.00;41.30;;;;;;5073457;28;21113;-44
2022/07/14 09:47:14;;;;;;;5.10;2.03;;;34.00;40.50;;;;;;5075161;28;20499;-40
2022/07/14 09:49:41;;;;;;;2.27;1.30;;;33.90;40.40;;;;;;5075849;28;20439;-50
2022/07/14 09:52:08;;;;;;;2.70;1.33;;;33.70;40.40;;;;;;5075770;28;20491;-48
2022/07/14 09:54:47;;;;;;;2.30;1.50;;;33.70;40.40;;;;;;5076903;28;20450;-49
2022/07/14 09:57:26;;;;;;;3.40;1.57;;;33.70;40.60;;;;;;5077263;28;20438;-59
2022/07/14 09:59:58;;;;;;;6.47;1.70;;;33.50;40.10;;;;;;5076458;28;20438;-43
2022/07/14 10:02:28;;;;;;;2.90;1.70;;;33.10;40.70;;;;;;5076383;28;20475;-53
2022/07/14 10:04:58;;;;;;;3.43;1.50;;;32.70;41.50;;;;;;5076480;28;20479;-44
2022/07/14 10:07:25;;;;;;;3.03;1.40;;;32.80;41.50;;;;;;5077034;28;20427;-41
2022/07/14 10:09:58;;;;;;;3.40;1.40;;;32.80;41.40;;;;;;5077044;28;20450;-48
2022/07/14 10:12:26;;;;;;;2.90;1.40;;;33.00;41.90;;;;;;5071506;28;20467;-49
2022/07/14 10:14:54;;;;;;;1.57;1.33;;;33.00;40.80;;;;;;5071818;28;20428;-50
2022/07/14 10:17:22;;;;;;;2.23;1.40;;;33.00;40.90;;;;;;5073202;28;20429;-41
2022/07/14 10:19:52;;;;;;;3.10;1.23;;;33.10;41.20;;;;;;5076033;28;20553;-39
2022/07/14 10:22:20;;;;;;;6.37;1.40;;;33.20;40.20;;;;;;5075779;28;20503;-44
2022/07/14 10:24:50;;;;;;;2.37;1.60;;;33.30;38.80;;;;;;5073865;28;21033;-52
2022/07/14 10:27:18;;;;;;;4.53;1.37;;;33.10;38.70;;;;;;5071335;28;20484;-49
2022/07/14 10:29:49;;;;;;;4.13;1.30;;;33.00;40.00;;;;;;5075444;28;20477;-46
2022/07/14 10:32:33;;;;;;;7.40;1.63;;;32.90;39.50;;;;;;5074084;28;20431;-40
2022/07/14 10:35:13;;;;;;;3.20;1.23;;;32.60;40.70;;;;;;5071158;28;20470;-50
2022/07/14 10:37:52;;;;;;;4.50;2.17;;;32.20;41.20;;;;;;5072284;28;20423;-53
2022/07/14 10:40:29;;;;;;;5.70;1.60;;;31.80;41.40;;;;;;5073146;28;20447;-53
2022/07/14 10:43:05;;;;;;;2.50;1.57;;;31.60;42.50;;;;;;5073855;28;20478;-40
2022/07/14 10:45:34;;;;;;;1.70;1.30;;;31.70;42.50;;;;;;5073267;28;20486;-50
2022/07/14 10:48:01;;;;;;;2.80;1.73;;;31.60;41.90;;;;;;5075310;28;20447;-44
2022/07/14 10:50:30;;;;;;;4.90;1.23;;;31.50;42.10;;;;;;5072655;28;20467;-45
2022/07/14 10:53:02;;;;;;;4.03;1.40;;;31.30;40.70;;;;;;5071797;28;20491;-38
2022/07/14 10:55:38;;;;;;;6.03;1.80;;;30.80;41.10;;;;;;5075202;28;20470;-44
2022/07/14 10:58:28;;;;;;;4.57;1.67;;;30.20;41.40;;;;;;5075384;28;20506;-41
2022/07/14 11:00:57;;;;;;;1.47;1.10;;;29.80;42.60;;;;;;5072084;28;20455;-52
2022/07/14 11:03:26;;;;;;;3.57;1.27;;;29.70;42.80;;;;;;5075876;28;20458;-44
2022/07/14 11:06:17;;;;;;;1.90;1.50;;;29.60;44.10;;;;;;5073931;28;20467;-42
2022/07/14 11:08:46;;;;;;;3.03;1.70;;;29.40;43.80;;;;;;5071400;28;20444;-48
2022/07/14 11:11:18;;;;;;;2.03;1.20;;;29.10;41.60;;;;;;5072318;28;20562;-51
2022/07/14 11:14:06;;;;;;;5.13;1.77;;;28.90;41.40;;;;;;5073799;28;20439;-51
2022/07/14 11:16:57;;;;;;;1.87;1.10;;;28.90;42.80;;;;;;5074593;28;20477;-42
2022/07/14 11:19:25;;;;;;;3.33;1.10;;;28.70;43.40;;;;;;5074673;28;20515;-51
2022/07/14 11:22:24;;;;;;;2.13;1.20;;;28.60;42.50;;;;;;5074447;28;20458;-49
2022/07/14 11:24:55;;;;;;;1.97;1.23;;;28.30;42.60;;;;;;5075115;28;20475;-36
2022/07/14 11:27:39;;;;;;;2.53;1.17;;;28.30;42.30;;;;;;5074271;28;20523;-48
2022/07/14 11:30:28;;;;;;;2.27;1.00;;;28.20;42.30;;;;;;5074950;28;20415;-49
2022/07/14 11:33:07;;;;;;;2.00;1.23;;;28.20;42.50;;;;;;5072295;28;20463;-42
2022/07/14 11:38:43;;;;;;;3.93;1.23;;;27.90;43.00;;;;;;5072915;28;20406;-53
2022/07/14 11:41:13;;;;;;;2.00;1.00;;;27.80;43.30;;;;;;5073149;28;20451;-42
2022/07/14 11:43:48;;;;;;;1.70;1.30;;;27.70;43.60;;;;;;5075427;28;20470;-42
2022/07/14 11:46:17;;;;;;;3.80;1.47;;;27.60;43.80;;;;;;5074736;28;20443;-37
2022/07/14 11:48:46;;;;;;;1.60;1.20;;;27.70;44.80;;;;;;5075370;28;20463;-42
2022/07/14 11:51:15;;;;;;;3.03;1.30;;;27.80;43.70;;;;;;5075258;28;20423;-42
2022/07/14 11:53:43;;;;;;;1.40;1.03;;;27.70;43.80;;;;;;5074238;28;20423;-48
2022/07/14 11:56:12;;;;;;;1.80;1.10;;;27.50;43.50;;;;;;5075106;28;20454;-48
2022/07/14 11:58:40;;;;;;;3.43;1.60;;;27.30;44.10;;;;;;5075580;28;20458;-40
2022/07/14 12:01:08;;;;;;;4.07;1.30;;;27.10;44.90;;;;;;5074323;28;20447;-39
2022/07/14 12:03:35;;;;;;;3.67;3.07;;;27.10;44.90;;;;;;5074800;28;20447;-43
2022/07/14 12:06:03;;;;;;;2.20;1.27;;;27.20;44.30;;;;;;5074829;28;20524;-41
2022/07/14 12:08:32;;;;;;;1.80;1.03;;;27.30;44.40;;;;;;5074566;28;20455;-46
2022/07/14 12:11:05;;;;;;;2.17;1.23;;;27.20;44.40;;;;;;5073667;28;20448;-44
2022/07/14 12:13:44;;;;;;;2.47;1.30;;;27.20;44.80;;;;;;5073283;28;20458;-43
2022/07/14 12:16:11;;;;;;;2.43;1.10;;;27.00;43.90;;;;;;5077552;28;20419;-49
2022/07/14 12:18:38;;;;;;;2.60;0.97;;;26.80;44.30;;;;;;5077414;28;20431;-44
2022/07/14 12:21:05;;;;;;;1.67;1.07;;;26.60;44.20;;;;;;5077534;28;20443;-45
2022/07/14 12:23:34;;;;;;;6.10;3.77;;;26.50;45.10;;;;;;5078437;28;20427;-44
2022/07/14 12:26:04;;;;;;;2.43;0.90;;;26.50;45.50;;;;;;5077782;28;20478;-42
2022/07/14 12:28:32;;;;;;;3.27;1.10;;;26.50;45.30;;;;;;5078026;28;20450;-52
2022/07/14 12:31:00;;;;;;;8.03;1.40;;;26.60;44.00;;;;;;5078279;28;20446;-51
2022/07/14 12:33:30;;;;;;;2.33;1.30;;;26.70;43.30;;;;;;5078491;28;20427;-41
2022/07/14 12:35:59;;;;;;;2.50;1.20;;;26.60;43.30;;;;;;5066544;28;20463;-49
2022/07/14 12:38:30;;;;;;;2.23;1.20;;;26.60;43.90;;;;;;5066752;28;20466;-45
2022/07/14 12:40:59;;;;;;;2.00;1.20;;;26.50;44.20;;;;;;5077955;28;20510;-43
2022/07/14 12:43:30;;;;;;;1.50;1.07;;;26.40;44.60;;;;;;5077940;28;20462;-48
2022/07/14 12:46:02;;;;;;;2.80;1.10;;;26.50;44.00;;;;;;5077718;28;20538;-51
2022/07/14 12:48:30;;;;;;;2.30;1.10;;;26.50;43.30;;;;;;5077678;28;20535;-49
2022/07/14 12:50:57;;;;;;;1.20;1.00;;;26.60;43.10;;;;;;5076127;28;20465;-48
2022/07/14 12:53:24;;;;;;;1.43;1.03;;;26.50;42.80;;;;;;5071032;28;20511;-47
2022/07/14 12:55:59;;;;;;;3.40;1.03;;;26.40;42.90;;;;;;5067717;28;20489;-46
2022/07/14 12:58:29;;;;;;;4.10;1.50;;;26.30;43.30;;;;;;5072584;28;20454;-55
2022/07/14 13:00:56;;;;;;;2.47;1.30;;;26.20;43.70;;;;;;5075336;28;20462;-42
2022/07/14 13:03:23;;;;;;;2.63;1.17;;;26.20;43.80;;;;;;5077489;28;20522;-53
2022/07/14 13:05:54;;;;;;;4.30;1.80;;;26.20;44.40;;;;;;5077931;28;20483;-42
2022/07/14 13:08:36;;;;;;;2.87;1.20;;;26.40;44.80;;;;;;5076727;28;20465;-47
2022/07/14 13:11:05;;;;;;;3.20;0.90;;;26.50;42.60;;;;;;5078082;28;20455;-51